Flight Track Log - Related Links

Times and Time Zones

All times are in EDT time to prevent confusion due to time zone crossing. See the PDT4166 flight status page for this flight to view local times or setup timezone preferences in your user account.

Time Position Orientation Groundspeed Altitude Reporting Facility
EDT Latitude Longitude Course Direction KTS MPH feet Rate Location/Type
Mon 05:11:02 PM 39.9000 -75.2333 303° West 121 139 600  Level Philadelphia TRACON
Mon 05:11:44 PM 39.9167 -75.2667 303° West 121 139 1,500 1,353 Climbing Philadelphia TRACON
Mon 05:12:44 PM 39.9333 -75.3000 303° West 150 173 2,900 1,211 Climbing Philadelphia TRACON
Mon 05:13:38 PM 39.9667 -75.3000 360° North 164 189 3,800 1,211 Climbing Philadelphia TRACON
Mon 05:14:38 PM 40.0167 -75.3167 346° North 165 190 5,200 1,350 Climbing Philadelphia TRACON
Mon 05:15:38 PM 40.0500 -75.3500 323° Northwest 158 182 6,500 1,156 Climbing Philadelphia TRACON
Mon 05:16:27 PM 40.0839 -75.3803 326° Northwest 168 193 7,300 1,101 Climbing New York Center
Mon 05:17:27 PM 40.1158 -75.4150 320° Northwest 162 186 8,500 915 Climbing New York Center
Mon 05:18:25 PM 40.1433 -75.4575 310° West 168 193 9,100 303 Climbing New York Center
Mon 05:19:26 PM 40.1828 -75.5144 312° West 196 226 9,100 694 Level New York Center
Mon 05:20:26 PM 40.2211 -75.5497 325° Northwest 202 232 10,500 1,289 Climbing New York Center
Mon 05:21:27 PM 40.2522 -75.6008 309° West 175 201 11,700 756 Climbing New York Center
Mon 05:22:25 PM 40.2792 -75.6544 303° West 164 189 12,000 151 Climbing New York Center
Mon 05:23:26 PM 40.3186 -75.7064 315° West 185 213 12,000 492 Level New York Center
Mon 05:24:27 PM 40.3503 -75.7494 314° West 195 224 13,000 900 Climbing New York Center
Mon 05:25:26 PM 40.3817 -75.7953 312° West 179 206 13,800 850 Climbing New York Center
Mon 05:26:27 PM 40.4150 -75.8442 312° West 169 194 14,700 908 Climbing New York Center
Mon 05:27:25 PM 40.4422 -75.8897 308° West 169 194 15,600 661 Climbing New York Center
Mon 05:28:25 PM 40.4672 -75.9353 306° West 169 194 16,000 198 Climbing New York Center
Mon 05:29:26 PM 40.5064 -75.9956 311° West 180 207 16,000  Level New York Center
Mon 05:30:26 PM 40.5372 -76.0525 305° West 196 226 16,000  Level New York Center
Mon 05:31:27 PM 40.5742 -76.1100 310° West 206 237 16,000  Level New York Center
Mon 05:32:28 PM 40.6150 -76.1761 309° West 211 243 16,000  Level New York Center
Mon 05:33:26 PM 40.6567 -76.2231 319° Northwest 211 243 16,000 51 Level New York Center
Mon 05:34:26 PM 40.7214 -76.2200 North 199 229 16,100 50 Climbing New York Center
Mon 05:35:27 PM 40.7797 -76.2219 359° North 218 251 16,100  Level New York Center
Mon 05:36:27 PM 40.8508 -76.2111 North 233 268 16,100  Level New York Center
Mon 05:37:25 PM 40.9156 -76.2108 360° North 233 268 16,100  Level New York Center
Mon 05:38:25 PM 40.9803 -76.2106 360° North 233 268 16,100  Level New York Center
Mon 05:39:26 PM 41.0422 -76.2181 355° North 233 268 16,100 -50 Level New York Center
Mon 05:40:26 PM 41.1089 -76.2181 360° North 233 268 16,000 -50 Descending New York Center
Mon 05:41:27 PM 41.1675 -76.2144 North 233 268 16,000  Level New York Center
Mon 05:42:25 PM 41.2342 -76.2117 North 233 268 16,000  Level New York Center
Mon 05:43:25 PM 41.3025 -76.2225 353° North 233 268 16,000  Level New York Center
Mon 05:44:25 PM 41.3694 -76.2169 North 233 268 16,000  Level New York Center
Mon 05:45:26 PM 41.4364 -76.2114 North 233 268 16,000  Level New York Center
Mon 05:46:27 PM 41.4947 -76.2133 359° North 233 268 16,000  Level New York Center
Mon 05:47:25 PM 41.5611 -76.2131 360° North 233 268 16,000 50 Level New York Center
Mon 05:48:26 PM 41.6322 -76.2078 North 233 268 16,100 -149 Climbing New York Center
Mon 05:49:26 PM 41.7011 -76.2078 360° North 233 268 15,700 -555 Descending New York Center
Mon 05:50:25 PM 41.7739 -76.2111 358° North 243 280 15,000 -756 Descending New York Center
Mon 05:51:25 PM 41.8406 -76.2081 North 263 303 14,200 -800 Descending New York Center
Mon 05:52:25 PM 41.9133 -76.2114 358° North 263 303 13,400 -836 Descending New York Center
Mon 05:53:27 PM 41.9942 -76.2181 356° North 263 303 12,500 -738 Descending New York Center
Mon 05:54:27 PM 42.0631 -76.2125 North 263 303 11,900 -712 Descending New York Center
Mon 05:55:25 PM 42.1361 -76.2072 North 268 308 11,100 -458 Descending New York Center
Mon 05:56:25 PM 42.2050 -76.2047 North 262 302 11,000  Descending New York Center
Mon 05:57:26 PM 42.2714 -76.2100 357° North 248 285 11,100  Climbing New York Center
Mon 05:59:23 PM 42.4106 -76.2142 359° North 239 275 11,000 -34 Descending Boston Center
Mon 06:00:24 PM 42.4750 -76.2239 354° North 235 270 11,000 49 Level Boston Center
Mon 06:01:25 PM 42.5394 -76.2250 359° North 236 272 11,100  Climbing Boston Center
Mon 06:02:25 PM 42.6106 -76.2181 North 237 273 11,000 -397 Descending Boston Center
Mon 06:03:26 PM 42.6764 -76.1825 22° Northeast 270 311 10,300 -843 Descending Boston Center
Mon 06:04:26 PM 42.7428 -76.1328 29° Northeast 274 315 9,300 -992 Descending Boston Center
Mon 06:05:27 PM 42.8086 -76.0914 25° Northeast 269 310 8,300 -1,033 Descending Boston Center
Mon 06:06:28 PM 42.8767 -76.0472 25° Northeast 266 306 7,200 -1,190 Descending Boston Center
Mon 06:07:28 PM 42.9406 -76.0111 22° Northeast 245 282 5,900 -1,289 Descending Boston Center
Mon 06:08:29 PM 43.0017 -75.9864 16° North 228 262 4,600 -1,475 Descending Boston Center
Mon 06:09:30 PM 43.0603 -75.9783 North 187 215 2,900 -1,323 Descending Boston Center
Mon 06:10:36 PM 43.1097 -75.9956 346° North 147 169 1,800 -709 Descending Boston Center
Mon 06:11:37 PM 43.1086 -76.0381 268° West 104 120 1,400 -393 Descending Boston Center

Login

Don't have an account? Register now (free) for customized features, flight alerts, and more!